Time;durP1;ratioP1;P1;durP2;ratioP2;P2;SDS_P1;SDS_P2;PMS_P1;PMS_P2;Temp;Humidity;BMP_temperature;BMP_pressure;BME280_temperature;BME280_humidity;BME280_pressure;Samples;Min_cycle;Max_cycle;Signal;HPM_P1;HPM_P2
2022/02/09 00:01:28;;;;;;;0.10;0.10;;;;;;;12.18;62.67;102666.31;5025289;28;20030;-87
2022/02/09 00:04:05;;;;;;;0.10;0.10;;;;;;;12.19;62.17;102678.72;5024189;28;20068;-87
2022/02/09 00:06:42;;;;;;;0.10;0.10;;;;;;;12.11;62.94;102681.31;5023999;28;20026;-87
2022/02/09 00:09:09;;;;;;;0.25;0.25;;;;;;;12.13;62.67;102684.88;5023360;28;20080;-87
2022/02/09 00:11:42;;;;;;;0.10;0.10;;;;;;;12.17;62.36;102683.13;5026519;28;20026;-86
2022/02/09 00:14:19;;;;;;;0.10;0.10;;;;;;;12.17;62.31;102673.38;5025030;28;20436;-87
2022/02/09 00:19:42;;;;;;;0.20;0.20;;;;;;;12.15;62.60;102653.91;5067908;28;20863;-86
2022/02/09 00:25:22;;;;;;;0.00;0.00;;;;;;;12.04;62.44;102659.16;5057372;28;20052;-86
2022/02/09 00:28:04;;;;;;;0.10;0.10;;;;;;;12.01;63.08;102655.63;5066090;28;20032;-86
2022/02/09 00:39:14;;;;;;;0.00;0.00;;;;;;;12.02;63.70;102662.72;5069537;28;20491;-86
2022/02/09 00:44:41;;;;;;;0.00;0.00;;;;;;;12.02;63.34;102665.38;5086980;28;20036;-86
2022/02/09 01:40:09;;;;;;;0.10;0.10;;;;;;;12.04;64.03;102647.69;5044761;28;20030;-86
2022/02/09 01:55:26;;;;;;;0.10;0.10;;;;;;;11.99;64.58;102652.97;4925246;27;5864613;-86
2022/02/09 01:56:56;;;;;;;0.20;0.20;;;;;;;12.09;63.98;102643.25;5116647;28;20035;-87
2022/02/09 01:59:22;;;;;;;4.18;0.95;;;;;;;12.03;64.19;102635.25;5121328;27;20389;-86
2022/02/09 02:01:49;;;;;;;0.10;0.10;;;;;;;12.06;64.11;102643.22;5131198;28;20031;-87
2022/02/09 02:04:15;;;;;;;0.10;0.10;;;;;;;11.95;64.46;102643.16;5131303;28;20128;-86
2022/02/09 02:06:45;;;;;;;0.00;0.00;;;;;;;12.07;63.52;102634.38;5126544;28;20038;-86
2022/02/09 02:09:12;;;;;;;0.10;0.10;;;;;;;12.15;63.50;102640.63;5125079;28;20059;-86
2022/02/09 02:11:46;;;;;;;0.00;0.00;;;;;;;12.02;64.16;102628.16;5130947;27;20027;-86
2022/02/09 02:14:22;;;;;;;0.40;0.40;;;;;;;12.07;64.27;102621.09;5131083;28;20404;-86
2022/02/09 02:16:57;;;;;;;0.22;0.22;;;;;;;12.00;64.10;102617.56;5126405;27;20024;-86
2022/02/09 02:25:24;;;;;;;0.00;0.00;;;;;;;12.09;64.09;102611.38;5076633;28;20404;-86
2022/02/09 02:36:22;;;;;;;0.10;0.10;;;;;;;12.09;63.96;102606.06;5066435;28;20517;-85
2022/02/09 02:57:09;;;;;;;1.77;0.68;;;;;;;12.00;64.29;102592.75;5063491;28;20111;-86
2022/02/09 02:59:05;;;;;;;0.10;0.10;;;;;;;12.03;64.75;102580.34;5050035;28;20075;-86
2022/02/09 03:12:35;;;;;;;0.10;0.10;;;;;;;11.90;64.96;102573.19;5072247;27;20431;-86
2022/02/09 03:15:20;;;;;;;0.22;0.22;;;;;;;11.98;64.96;102572.38;5063224;28;20033;-86
2022/02/09 03:18:00;;;;;;;3.90;1.10;;;;;;;12.02;64.88;102559.97;5063826;28;20036;-86
2022/02/09 03:20:38;;;;;;;0.10;0.10;;;;;;;11.93;65.00;102562.59;5070025;28;20064;-86
2022/02/09 03:48:25;;;;;;;0.00;0.00;;;;;;;12.02;64.98;102564.41;5127075;27;20065;-86
2022/02/09 03:56:43;;;;;;;0.10;0.10;;;;;;;12.04;64.81;102567.97;5084195;28;20769;-87
2022/02/09 03:59:12;;;;;;;0.10;0.10;;;;;;;12.01;65.57;102568.81;5069214;28;20537;-87
2022/02/09 04:01:41;;;;;;;0.10;0.10;;;;;;;12.02;65.26;102561.75;5070178;28;20104;-86
2022/02/09 04:04:08;;;;;;;0.08;0.08;;;;;;;11.92;65.82;102558.16;5070611;28;20025;-85
2022/02/09 04:06:37;;;;;;;0.20;0.20;;;;;;;11.94;65.89;102554.63;5069191;28;20035;-87
2022/02/09 04:09:10;;;;;;;0.10;0.10;;;;;;;11.94;66.16;102556.41;5069762;28;20059;-86
2022/02/09 04:11:44;;;;;;;0.10;0.10;;;;;;;11.94;65.89;102553.75;5069185;28;20060;-87
2022/02/09 04:17:08;;;;;;;0.00;0.00;;;;;;;11.85;65.83;102564.34;5082136;27;20424;-86
2022/02/09 04:36:26;;;;;;;0.10;0.10;;;;;;;11.94;65.48;102545.78;5054626;28;20481;-86
2022/02/09 04:39:08;;;;;;;0.10;0.10;;;;;;;11.91;65.82;102546.66;5064060;28;20071;-86
2022/02/09 04:42:33;;;;;;;0.20;0.20;;;;;;;11.85;65.61;102551.06;5058689;28;20033;-86
2022/02/09 04:47:25;;;;;;;0.20;0.20;;;;;;;11.89;65.18;102547.53;5051947;28;20037;-86
2022/02/09 04:50:06;;;;;;;0.20;0.20;;;;;;;11.85;65.34;102556.38;5055512;28;20069;-85
2022/02/09 04:52:57;;;;;;;2.28;2.08;;;;;;;11.70;66.01;102551.91;5037371;28;20040;-85
2022/02/09 04:58:25;;;;;;;0.00;0.00;;;;;;;11.83;65.38;102548.41;5040677;28;20400;-86
2022/02/09 05:01:00;;;;;;;0.03;0.03;;;;;;;11.95;64.82;102542.22;5040270;28;20428;-86
2022/02/09 05:25:43;;;;;;;0.10;0.10;;;;;;;11.80;65.76;102541.31;5110575;27;20405;-86
2022/02/09 05:28:14;;;;;;;0.10;0.10;;;;;;;11.82;65.43;102536.00;5096656;28;20028;-86
2022/02/09 05:30:43;;;;;;;0.10;0.10;;;;;;;11.69;66.05;102523.56;5107755;28;20286;-86
2022/02/09 05:33:10;;;;;;;0.35;0.35;;;;;;;11.74;66.28;102540.41;5100687;28;20024;-86
2022/02/09 05:35:36;;;;;;;0.00;0.00;;;;;;;11.64;66.57;102543.03;5100595;28;20043;-86
2022/02/09 05:38:02;;;;;;;0.00;0.00;;;;;;;11.72;66.01;102536.88;5106869;28;20097;-87
2022/02/09 05:40:29;;;;;;;0.20;0.20;;;;;;;11.64;66.48;102548.34;5106770;28;20439;-87
2022/02/09 05:42:57;;;;;;;0.10;0.10;;;;;;;11.63;66.55;102545.72;5105879;28;20077;-86
2022/02/09 05:45:27;;;;;;;0.10;0.10;;;;;;;11.55;67.02;102540.38;5100816;28;20442;-86
2022/02/09 05:50:51;;;;;;;0.00;0.00;;;;;;;11.50;67.64;102544.75;5079104;28;20020;-86
2022/02/09 05:53:23;;;;;;;0.10;0.10;;;;;;;11.50;67.45;102539.44;5100712;28;20383;-87
2022/02/09 05:55:54;;;;;;;0.40;0.40;;;;;;;11.49;67.29;102543.00;5104585;28;20470;-87
2022/02/09 05:58:35;;;;;;;0.10;0.10;;;;;;;11.51;67.79;102535.91;5097326;28;20039;-86
2022/02/09 06:01:03;;;;;;;0.20;0.20;;;;;;;11.47;67.50;102531.50;5107977;28;20024;-86
2022/02/09 06:03:29;;;;;;;0.10;0.10;;;;;;;11.37;67.77;102542.97;5107346;28;20482;-86
2022/02/09 06:05:56;;;;;;;0.52;0.52;;;;;;;11.49;67.05;102538.56;5092815;28;20028;-86
2022/02/09 06:08:23;;;;;;;0.10;0.10;;;;;;;11.42;67.64;102535.91;5106476;28;20027;-86
2022/02/09 06:11:02;;;;;;;0.08;0.08;;;;;;;11.48;67.25;102536.78;5095486;28;20123;-86
2022/02/09 06:21:49;;;;;;;0.00;0.00;;;;;;;11.39;67.17;102531.47;5098823;28;20131;-87
2022/02/09 06:24:15;;;;;;;0.10;0.10;;;;;;;11.26;67.77;102535.81;5092732;28;20039;-86
2022/02/09 06:26:41;;;;;;;0.10;0.10;;;;;;;11.45;67.67;102522.63;5082800;28;20109;-86
2022/02/09 06:29:08;;;;;;;0.10;0.10;;;;;;;11.34;68.09;102538.53;5090830;28;20027;-86
2022/02/09 06:31:36;;;;;;;0.10;0.10;;;;;;;11.43;67.70;102543.88;5081400;28;20024;-86
2022/02/09 06:34:03;;;;;;;0.10;0.10;;;;;;;11.44;68.04;102529.72;5082687;28;20033;-86
2022/02/09 06:36:30;;;;;;;0.10;0.10;;;;;;;11.36;68.32;102525.25;5070564;28;20038;-85
2022/02/09 06:39:04;;;;;;;0.10;0.10;;;;;;;11.27;67.82;102532.28;5085882;28;20024;-86
2022/02/09 06:41:30;;;;;;;0.00;0.00;;;;;;;11.36;67.72;102538.53;5086526;28;20115;-86
2022/02/09 06:43:56;;;;;;;0.10;0.10;;;;;;;11.34;67.75;102538.53;5074194;28;20066;-87
2022/02/09 06:46:23;;;;;;;0.10;0.10;;;;;;;11.29;67.82;102529.63;5078965;28;20040;-86
2022/02/09 06:48:50;;;;;;;1.98;1.00;;;;;;;11.41;67.75;102531.47;5069370;28;20039;-87
2022/02/09 06:51:19;;;;;;;0.10;0.10;;;;;;;11.38;67.93;102521.72;5074961;28;20475;-85
2022/02/09 06:53:59;;;;;;;0.10;0.10;;;;;;;11.35;68.17;102532.31;5075028;28;20028;-86
2022/02/09 06:56:40;;;;;;;0.30;0.30;;;;;;;11.17;68.63;102538.44;5069304;28;20029;-86
2022/02/09 06:59:12;;;;;;;0.10;0.10;;;;;;;11.31;68.70;102523.50;5072977;28;20032;-85
2022/02/09 07:01:39;;;;;;;0.10;0.10;;;;;;;11.29;68.51;102534.94;5070458;28;20024;-85
2022/02/09 07:04:05;;;;;;;0.47;0.30;;;;;;;11.18;69.20;102526.97;5070670;28;20047;-85
2022/02/09 07:06:32;;;;;;;0.00;0.00;;;;;;;11.34;68.53;102517.31;5077257;28;20024;-87
2022/02/09 07:08:58;;;;;;;0.03;0.03;;;;;;;11.30;68.42;102524.38;5088320;28;20036;-86
2022/02/09 07:11:24;;;;;;;0.10;0.10;;;;;;;11.30;68.75;102521.72;5089052;28;20032;-86
2022/02/09 07:13:51;;;;;;;0.00;0.00;;;;;;;11.26;68.78;102509.28;5095130;28;20089;-87
2022/02/09 07:16:19;;;;;;;0.80;0.50;;;;;;;11.16;69.13;102507.50;5090600;28;20497;-86
2022/02/09 07:18:47;;;;;;;0.03;0.03;;;;;;;11.15;69.39;102505.72;5077146;28;20020;-86
2022/02/09 07:21:19;;;;;;;0.00;0.00;;;;;;;11.17;69.17;102514.56;5083459;28;20056;-86
2022/02/09 07:23:49;;;;;;;0.10;0.10;;;;;;;11.27;68.95;102524.34;5077560;28;20033;-87
2022/02/09 07:26:25;;;;;;;0.10;0.10;;;;;;;11.30;69.19;102516.41;5092006;28;20317;-86
2022/02/09 07:28:52;;;;;;;0.10;0.10;;;;;;;11.19;69.19;102518.13;5081830;28;20036;-87
2022/02/09 07:31:20;;;;;;;0.10;0.10;;;;;;;11.29;68.83;102509.31;5076400;28;20028;-86
2022/02/09 07:33:47;;;;;;;0.10;0.10;;;;;;;11.30;68.96;102508.44;5072018;28;20028;-87
2022/02/09 07:36:16;;;;;;;0.00;0.00;;;;;;;11.37;68.81;102506.69;5073009;28;20028;-87
2022/02/09 07:38:43;;;;;;;0.73;0.73;;;;;;;11.35;68.33;102523.47;5066530;28;20080;-87
2022/02/09 07:41:10;;;;;;;0.65;0.47;;;;;;;11.24;68.90;102532.28;5063003;28;20033;-85
2022/02/09 07:43:43;;;;;;;0.20;0.20;;;;;;;11.28;68.66;102528.75;5082346;28;20059;-86
2022/02/09 07:47:00;;;;;;;0.10;0.10;;;;;;;11.23;68.62;102534.94;5073317;28;20089;-86
2022/02/09 07:51:53;;;;;;;2.40;0.50;;;;;;;11.25;68.71;102533.16;5074406;27;20435;-87
2022/02/09 07:54:22;;;;;;;0.10;0.10;;;;;;;11.19;68.88;102523.44;5046699;28;20079;-86
2022/02/09 07:56:49;;;;;;;0.10;0.10;;;;;;;11.31;68.54;102523.50;5048554;28;20075;-86
2022/02/09 07:59:16;;;;;;;0.90;0.90;;;;;;;11.28;68.59;102538.50;5043004;28;20547;-86
2022/02/09 08:01:44;;;;;;;0.17;0.17;;;;;;;11.27;68.45;102532.28;5046260;28;20387;-86
2022/02/09 08:04:11;;;;;;;0.10;0.10;;;;;;;11.30;68.16;102536.72;5035528;28;20117;-90
2022/02/09 08:06:38;;;;;;;1.17;0.47;;;;;;;11.29;68.17;102538.50;5044974;28;20053;-89
2022/02/09 08:09:12;;;;;;;1.08;1.08;;;;;;;11.33;68.07;102531.44;5037254;28;20480;-90
2022/02/09 08:31:44;;;;;;;0.10;0.10;;;;;;;11.43;67.74;102519.09;5061854;28;20401;-91
2022/02/09 08:34:11;;;;;;;1.33;0.77;;;;;;;11.32;67.79;102509.31;5082509;28;20051;-89
2022/02/09 08:36:38;;;;;;;0.10;0.10;;;;;;;11.43;67.44;102516.44;5050075;28;20041;-91
2022/02/09 08:39:06;;;;;;;0.35;0.35;;;;;;;11.37;67.26;102516.44;5052456;28;20060;-88
2022/02/09 08:41:33;;;;;;;0.10;0.10;;;;;;;11.38;67.59;102518.19;5066792;28;20492;-84
2022/02/09 08:44:00;;;;;;;0.10;0.10;;;;;;;11.44;67.30;102518.19;5061869;28;20033;-93
2022/02/09 08:46:26;;;;;;;0.25;0.25;;;;;;;11.41;67.31;102512.88;5066524;28;20503;-89
2022/02/09 08:48:53;;;;;;;0.40;0.40;;;;;;;11.42;67.65;102517.31;5069772;28;20060;-90
2022/02/09 08:51:22;;;;;;;0.30;0.30;;;;;;;11.59;66.81;102523.56;5057006;28;20108;-93
2022/02/09 08:53:48;;;;;;;0.10;0.10;;;;;;;11.62;67.29;102536.84;5060384;28;20064;-89
2022/02/09 08:56:15;;;;;;;0.15;0.15;;;;;;;11.59;67.10;102514.69;5055772;28;20020;-90
2022/02/09 08:58:43;;;;;;;0.10;0.10;;;;;;;11.64;67.01;102527.13;5057869;28;20052;-90
2022/02/09 09:01:21;;;;;;;0.10;0.10;;;;;;;11.50;67.46;102523.53;5056706;28;20091;-86
2022/02/09 09:03:51;;;;;;;0.15;0.15;;;;;;;11.61;66.58;102532.44;5058852;28;20128;-87
2022/02/09 09:06:23;;;;;;;0.65;0.65;;;;;;;11.79;66.37;102536.00;5049904;28;20494;-83
2022/02/09 09:17:27;;;;;;;0.10;0.10;;;;;;;11.89;66.30;102536.91;5035621;28;20042;-89
2022/02/09 09:25:19;;;;;;;0.20;0.20;;;;;;;11.86;66.36;102537.78;5033239;28;20033;-83
2022/02/09 09:31:18;;;;;;;0.38;0.38;;;;;;;11.96;65.24;102523.69;5039070;28;20064;-82
2022/02/09 10:32:47;;;;;;;0.10;0.10;;;;;;;12.56;63.55;102540.50;5039668;28;20113;-81
2022/02/09 10:35:29;;;;;;;0.25;0.25;;;;;;;12.70;63.33;102543.16;5048044;28;20065;-80
2022/02/09 10:37:59;;;;;;;0.30;0.30;;;;;;;12.76;62.46;102540.47;5044554;28;20033;-81
2022/02/09 10:40:35;;;;;;;0.45;0.45;;;;;;;12.79;62.58;102551.97;5048309;28;20033;-80
2022/02/09 10:43:03;;;;;;;0.25;0.25;;;;;;;12.89;62.63;102549.31;5044874;28;20034;-82
2022/02/09 10:48:34;;;;;;;0.10;0.10;;;;;;;13.13;62.32;102555.47;5069195;27;20493;-84
2022/02/09 10:51:19;;;;;;;1.13;1.13;;;;;;;13.02;61.87;102560.81;5045511;28;20033;-82
2022/02/09 10:56:51;;;;;;;0.10;0.10;;;;;;;13.21;61.63;102551.00;5058050;28;20494;-81
2022/02/09 10:59:20;;;;;;;0.50;0.50;;;;;;;13.29;61.65;102548.31;5039790;28;20033;-82
2022/02/09 11:01:47;;;;;;;0.30;0.30;;;;;;;13.40;61.28;102551.84;5035150;28;20033;-81
2022/02/09 11:04:15;;;;;;;0.10;0.10;;;;;;;13.61;60.52;102561.50;5027691;28;20030;-82
2022/02/09 11:06:43;;;;;;;0.10;0.10;;;;;;;13.61;60.21;102550.84;5021684;28;20069;-81
2022/02/09 11:09:12;;;;;;;0.10;0.10;;;;;;;13.75;60.26;102545.44;5027094;28;20038;-81
2022/02/09 11:12:06;;;;;;;0.10;0.10;;;;;;;13.67;59.90;102552.59;5022478;28;20038;-82
2022/02/09 11:14:32;;;;;;;0.77;0.77;;;;;;;13.48;59.75;102559.78;5004599;28;20038;-81
2022/02/09 11:17:03;;;;;;;0.47;0.47;;;;;;;13.46;60.33;102553.56;5015788;28;20562;-81
2022/02/09 11:19:35;;;;;;;0.10;0.10;;;;;;;13.49;59.90;102551.78;5020806;28;20113;-81
2022/02/09 11:22:03;;;;;;;;;;;;;;;13.54;59.66;102554.44;5021654;28;20034;-81
2022/02/09 11:24:30;;;;;;;0.20;0.20;;;;;;;13.28;60.45;102560.72;5019110;28;19925;-81
2022/02/09 11:27:13;;;;;;;0.35;0.35;;;;;;;13.39;60.46;102560.72;5023904;28;20057;-82
2022/02/09 11:32:57;;;;;;;0.80;0.80;;;;;;;13.17;60.62;102552.78;5056331;28;20457;-80
2022/02/09 11:35:29;;;;;;;7.32;3.53;;;;;;;13.31;60.39;102560.72;5024722;28;20131;-76
2022/02/09 11:51:59;;;;;;;0.55;0.55;;;;;;;13.28;60.51;102544.75;5109825;27;20422;-76
2022/02/09 11:58:31;;;;;;;0.10;0.10;;;;;;;13.50;60.16;102547.38;5073237;27;20405;-77
2022/02/09 12:09:34;;;;;;;0.10;0.10;;;;;;;13.03;60.85;102546.63;5134687;27;20399;-76
2022/02/09 12:12:06;;;;;;;1.05;0.65;;;;;;;13.05;60.60;102539.53;5133591;27;20441;-76
2022/02/09 12:23:26;;;;;;;0.75;0.75;;;;;;;13.07;60.47;102520.00;5057054;27;20511;-77
2022/02/09 12:25:52;;;;;;;0.85;0.85;;;;;;;13.10;60.48;102521.75;5039177;28;20447;-76
2022/02/09 12:28:21;;;;;;;1.23;1.23;;;;;;;12.97;60.70;102525.34;5038465;28;20471;-77
2022/02/09 12:30:49;;;;;;;0.10;0.10;;;;;;;12.92;61.34;102528.00;5042979;28;20102;-76
2022/02/09 12:33:24;;;;;;;0.30;0.30;;;;;;;12.97;60.56;102530.66;5048161;28;20033;-76
2022/02/09 12:35:51;;;;;;;0.32;0.32;;;;;;;12.84;61.36;102520.06;5044438;28;20048;-76
2022/02/09 12:38:33;;;;;;;0.10;0.10;;;;;;;12.89;60.98;102523.59;5046082;28;20036;-76
2022/02/09 12:41:17;;;;;;;0.00;0.00;;;;;;;12.99;61.02;102528.91;5045609;28;20354;-77
2022/02/09 12:43:48;;;;;;;0.35;0.35;;;;;;;12.86;61.19;102520.94;5046369;28;20041;-77
2022/02/09 12:46:16;;;;;;;0.20;0.20;;;;;;;12.80;61.55;102523.63;5043687;28;20124;-77
2022/02/09 12:48:42;;;;;;;0.10;0.10;;;;;;;12.82;61.25;102521.81;5041619;28;20057;-77
2022/02/09 12:51:08;;;;;;;0.10;0.10;;;;;;;12.89;61.06;102520.06;5046634;28;20033;-77
2022/02/09 12:53:36;;;;;;;1.08;1.05;;;;;;;12.98;60.68;102517.34;5047047;28;20033;-77
2022/02/09 12:56:16;;;;;;;0.10;0.10;;;;;;;13.06;60.67;102520.88;5040035;28;20530;-77
2022/02/09 12:58:42;;;;;;;0.20;0.20;;;;;;;13.02;60.89;102507.59;5037612;28;20424;-77
2022/02/09 13:01:09;;;;;;;0.95;0.75;;;;;;;13.10;60.65;102516.44;5041877;28;20041;-76
2022/02/09 13:03:35;;;;;;;0.98;0.47;;;;;;;13.04;60.86;102517.34;5033463;23;20059;-80
2022/02/09 13:06:01;;;;;;;0.65;0.65;;;;;;;13.02;60.54;102502.25;4969637;28;20098;-80
2022/02/09 13:08:30;;;;;;;0.00;0.00;;;;;;;13.06;60.64;102507.59;4969877;28;20034;-79
2022/02/09 13:11:17;;;;;;;0.00;0.00;;;;;;;13.07;60.47;102501.38;4969549;28;20110;-80
2022/02/09 13:13:50;;;;;;;0.47;0.47;;;;;;;13.00;60.88;102501.41;4978948;28;20035;-82
2022/02/09 13:16:27;;;;;;;;;;;;;;;13.04;61.19;102500.50;4989294;28;20034;-81
2022/02/09 14:18:05;;;;;;;0.10;0.10;;;;;;;12.92;62.95;102493.44;5052130;28;20491;-82
2022/02/09 14:23:59;;;;;;;2.88;0.65;;;;;;;12.92;63.25;102482.78;5039299;28;20033;-84
2022/02/09 14:53:42;;;;;;;0.10;0.10;;;;;;;12.53;65.60;102487.34;5056695;28;20487;-81
2022/02/09 14:56:21;;;;;;;1.23;1.15;;;;;;;12.49;66.21;102499.75;5055435;28;20033;-81
2022/02/09 14:58:54;;;;;;;0.10;0.10;;;;;;;12.44;65.77;102493.56;5052796;28;20628;-81
2022/02/09 15:01:32;;;;;;;0.13;0.13;;;;;;;12.34;66.37;102503.31;5053144;28;20045;-81
2022/02/09 15:04:23;;;;;;;0.20;0.20;;;;;;;12.30;67.33;102504.22;5055346;28;20032;-82
2022/02/09 15:17:47;;;;;;;0.17;0.17;;;;;;;12.25;66.91;102503.28;5073749;27;20448;-80
2022/02/09 15:21:01;;;;;;;0.00;0.00;;;;;;;12.30;67.22;102507.75;5054055;28;20038;-81
2022/02/09 15:22:59;;;;;;;0.10;0.10;;;;;;;12.16;67.25;102512.16;5050964;28;20507;-81
2022/02/09 15:25:31;;;;;;;0.32;0.32;;;;;;;12.22;67.25;102514.81;5049145;28;20103;-80
2022/02/09 15:28:00;;;;;;;0.90;0.43;;;;;;;12.25;66.95;102504.19;5048400;28;20037;-81
2022/02/09 15:30:29;;;;;;;0.15;0.15;;;;;;;12.15;67.59;102510.41;5058974;28;20036;-81
2022/02/09 15:32:57;;;;;;;0.13;0.13;;;;;;;12.16;67.87;102508.63;5049771;28;20029;-81
2022/02/09 15:35:32;;;;;;;0.20;0.20;;;;;;;12.17;67.41;102511.28;5048734;28;20037;-82
2022/02/09 15:38:05;;;;;;;0.10;0.10;;;;;;;12.00;69.01;102508.63;5047834;28;20026;-81
2022/02/09 16:05:37;;;;;;;0.50;0.50;;;;;;;11.56;69.48;102506.75;5026787;28;20081;-82
2022/02/09 16:05:46;;;;;;;0.10;0.10;;;;;;;11.63;69.47;102504.09;5025624;28;20080;-82
2022/02/09 16:19:44;;;;;;;0.65;0.43;;;;;;;11.61;69.23;102505.88;5068921;27;20799;-82
2022/02/09 16:22:10;;;;;;;0.03;0.03;;;;;;;11.61;69.37;102500.56;5055927;28;20045;-81
2022/02/09 16:25:12;;;;;;;0.10;0.10;;;;;;;11.70;69.23;102499.72;5043038;28;20087;-79
2022/02/09 16:38:40;;;;;;;0.10;0.10;;;;;;;11.64;69.72;102489.94;5036835;28;20483;-82
2022/02/09 16:44:19;;;;;;;0.10;0.10;;;;;;;11.75;68.63;102486.41;5035716;28;20030;-79
2022/02/09 16:44:37;;;;;;;0.10;0.10;;;;;;;11.76;69.00;102488.19;5034689;28;20069;-81
2022/02/09 16:46:40;;;;;;;0.10;0.10;;;;;;;11.75;68.66;102487.31;5037422;28;20044;-80
2022/02/09 16:49:12;;;;;;;0.10;0.10;;;;;;;11.77;69.22;102482.00;5030163;28;20388;-82
2022/02/09 16:51:50;;;;;;;0.10;0.10;;;;;;;11.78;69.15;102483.78;5039339;28;20049;-80
2022/02/09 17:11:15;;;;;;;0.10;0.10;;;;;;;11.79;68.85;102480.25;5036050;28;20148;-83
2022/02/09 17:19:09;;;;;;;0.25;0.25;;;;;;;11.86;68.90;102482.00;5055300;27;20435;-83
2022/02/09 17:21:35;;;;;;;0.22;0.22;;;;;;;11.91;69.01;102490.88;5060572;28;20108;-82
2022/02/09 17:24:04;;;;;;;0.45;0.45;;;;;;;11.87;69.38;102486.44;5050669;28;20037;-82
2022/02/09 17:26:31;;;;;;;0.22;0.22;;;;;;;11.85;68.54;102485.56;5029535;28;20025;-82
2022/02/09 17:29:00;;;;;;;0.10;0.10;;;;;;;11.86;69.06;102484.66;5040924;28;20037;-82
2022/02/09 17:31:53;;;;;;;0.10;0.10;;;;;;;11.82;68.66;102480.22;5048383;28;20017;-82
2022/02/09 17:34:43;;;;;;;0.20;0.20;;;;;;;11.75;69.30;102482.00;5046155;28;20218;-82
2022/02/09 17:37:26;;;;;;;0.20;0.20;;;;;;;11.78;69.57;102478.47;5042751;28;20104;-83
2022/02/09 17:53:38;;;;;;;0.13;0.13;;;;;;;11.70;69.80;102472.25;5045144;28;20053;-83
2022/02/09 17:56:12;;;;;;;0.10;0.10;;;;;;;11.68;69.60;102474.91;5044100;28;20045;-87
2022/02/09 17:58:45;;;;;;;0.93;0.75;;;;;;;11.69;69.59;102473.13;5046095;28;20488;-83
2022/02/09 18:01:12;;;;;;;0.00;0.00;;;;;;;11.69;69.49;102466.06;5044142;28;20028;-81
2022/02/09 18:03:38;;;;;;;0.15;0.15;;;;;;;11.69;69.38;102455.44;5044868;28;20030;-86
2022/02/09 18:06:14;;;;;;;0.08;0.08;;;;;;;11.73;69.65;102459.00;5047845;28;20033;-85
2022/02/09 18:15:03;;;;;;;0.55;0.55;;;;;;;11.68;70.09;102464.28;5039124;28;20422;-85
2022/02/09 18:31:34;;;;;;;0.63;0.45;;;;;;;11.64;69.51;102452.78;5064788;28;20413;-81
2022/02/09 18:34:05;;;;;;;0.10;0.10;;;;;;;11.61;69.99;102451.88;5038818;28;20499;-80
2022/02/09 18:42:42;;;;;;;0.20;0.20;;;;;;;11.60;69.90;102439.47;5068233;28;20394;-81
2022/02/09 18:59:22;;;;;;;0.20;0.20;;;;;;;11.55;69.94;102423.56;5048393;28;20033;-85
2022/02/09 19:17:56;;;;;;;0.10;0.10;;;;;;;11.44;70.30;102417.34;5086159;28;20036;-85
2022/02/09 19:20:54;;;;;;;0.10;0.10;;;;;;;11.49;70.15;102410.28;5088156;28;20123;-85
2022/02/09 19:31:37;;;;;;;0.10;0.10;;;;;;;11.59;69.74;102411.16;5087730;28;20127;-83
2022/02/09 19:48:01;;;;;;;0.10;0.10;;;;;;;11.54;70.14;102413.84;5063781;28;20048;-82
2022/02/09 19:53:24;;;;;;;1.23;1.20;;;;;;;11.60;70.01;102408.53;5086586;28;20426;-82
2022/02/09 19:55:55;;;;;;;0.10;0.10;;;;;;;11.61;69.58;102405.00;5069133;28;20079;-82
2022/02/09 19:58:23;;;;;;;0.03;0.03;;;;;;;11.58;69.63;102394.38;5069125;28;20391;-82
2022/02/09 20:00:49;;;;;;;2.55;2.45;;;;;;;11.58;70.18;102397.00;5065208;28;20454;-82
2022/02/09 20:03:16;;;;;;;0.10;0.10;;;;;;;11.57;70.23;102394.38;5068455;28;20032;-82
2022/02/09 20:05:42;;;;;;;6.32;0.85;;;;;;;11.52;70.24;102397.00;5067651;28;20074;-81
2022/02/09 20:08:08;;;;;;;0.47;0.38;;;;;;;11.58;69.41;102391.72;5066551;28;20028;-80
2022/02/09 20:10:34;;;;;;;0.15;0.15;;;;;;;11.58;69.51;102394.38;5068312;28;20069;-81
2022/02/09 20:13:00;;;;;;;0.68;0.50;;;;;;;11.62;69.97;102395.25;5068183;28;20055;-83
2022/02/09 20:15:27;;;;;;;0.30;0.30;;;;;;;11.53;69.73;102398.78;5066775;28;20028;-83
2022/02/09 20:17:53;;;;;;;0.85;0.57;;;;;;;11.60;69.69;102387.28;5065901;28;20079;-82
2022/02/09 20:20:25;;;;;;;0.30;0.30;;;;;;;11.47;70.12;102385.50;5067363;28;20052;-82
2022/02/09 20:22:52;;;;;;;0.20;0.20;;;;;;;11.55;70.10;102389.06;5065276;28;20028;-82
2022/02/09 20:25:20;;;;;;;0.10;0.10;;;;;;;11.55;69.81;102389.06;5069173;28;20032;-81
2022/02/09 20:27:49;;;;;;;0.00;0.00;;;;;;;11.52;70.28;102389.03;5065289;28;20467;-84
2022/02/09 20:30:19;;;;;;;0.00;0.00;;;;;;;11.45;70.32;102382.88;5066059;28;20032;-81
2022/02/09 20:32:52;;;;;;;0.68;0.68;;;;;;;11.48;70.00;102376.66;5064246;28;20064;-83
2022/02/09 20:35:20;;;;;;;0.10;0.10;;;;;;;11.44;70.00;102375.78;5060403;28;20090;-82
2022/02/09 20:37:49;;;;;;;1.27;1.17;;;;;;;11.46;70.33;102373.13;5056516;28;20220;-79
2022/02/09 20:40:23;;;;;;;0.00;0.00;;;;;;;11.49;70.30;102371.34;5065123;28;20032;-80
2022/02/09 20:42:55;;;;;;;0.30;0.30;;;;;;;11.54;69.70;102366.06;5059680;28;20039;-80
2022/02/09 20:45:34;;;;;;;0.25;0.25;;;;;;;11.49;70.12;102365.16;5064244;28;20056;-81
2022/02/09 20:48:06;;;;;;;0.10;0.10;;;;;;;11.54;69.87;102371.38;5060557;28;20090;-82
2022/02/09 20:50:34;;;;;;;0.10;0.10;;;;;;;11.55;69.76;102367.84;5063126;28;20029;-84
2022/02/09 20:53:01;;;;;;;0.20;0.20;;;;;;;11.49;69.67;102368.69;5058248;28;20072;-85
2022/02/09 20:55:29;;;;;;;0.00;0.00;;;;;;;11.58;69.81;102370.47;5064323;28;20032;-86
2022/02/09 20:57:57;;;;;;;0.08;0.08;;;;;;;11.57;69.88;102366.03;5059701;28;20047;-83
2022/02/09 21:00:58;;;;;;;0.05;0.05;;;;;;;11.53;69.81;102358.97;5059065;28;20733;-84
2022/02/09 21:03:41;;;;;;;0.10;0.10;;;;;;;11.54;69.60;102360.75;5053385;28;20056;-81
2022/02/09 21:14:46;;;;;;;0.10;0.10;;;;;;;11.42;70.03;102336.84;5065034;28;20395;-83
2022/02/09 21:17:26;;;;;;;0.10;0.10;;;;;;;11.49;69.62;102338.63;5067775;28;20567;-83
2022/02/09 21:23:07;;;;;;;0.80;0.73;;;;;;;11.46;70.49;102320.94;5074355;27;20423;-85
2022/02/09 21:26:02;;;;;;;0.47;0.47;;;;;;;11.45;70.07;102312.94;5031308;28;20500;-87
2022/02/09 21:43:17;;;;;;;0.40;0.40;;;;;;;11.57;69.93;102318.25;5029923;28;20046;-80
2022/02/09 21:53:33;;;;;;;0.47;0.47;;;;;;;11.56;69.43;102315.63;5065830;28;20059;-82
2022/02/09 21:56:13;;;;;;;1.30;1.20;;;;;;;11.52;69.62;102320.03;5039476;28;20046;-81
2022/02/09 21:58:53;;;;;;;0.13;0.13;;;;;;;11.52;69.52;102311.19;5029972;28;20129;-82
2022/02/09 22:16:16;;;;;;;0.47;0.47;;;;;;;11.54;69.55;102302.34;5028266;28;20511;-84
2022/02/09 22:29:38;;;;;;;0.73;0.73;;;;;;;11.66;69.00;102293.47;5051920;28;20479;-82
2022/02/09 22:45:28;;;;;;;0.20;0.20;;;;;;;11.69;69.27;102289.94;5030982;28;20073;-82
2022/02/09 22:46:08;;;;;;;0.10;0.10;;;;;;;11.66;69.15;102277.53;5029258;28;20171;-82
2022/02/09 22:48:38;;;;;;;0.65;0.65;;;;;;;11.70;69.22;102275.78;5029933;28;20400;-82
2022/02/09 22:56:40;;;;;;;1.08;0.80;;;;;;;11.74;69.36;102267.81;5029853;28;20050;-83
2022/02/09 22:59:22;;;;;;;0.10;0.10;;;;;;;11.76;68.62;102262.47;5027917;28;20492;-83
2022/02/09 23:01:53;;;;;;;0.30;0.30;;;;;;;11.73;69.20;102259.84;5019991;28;20576;-83
2022/02/09 23:07:18;;;;;;;0.45;0.45;;;;;;;11.69;68.76;102255.41;5069327;28;20991;-82
2022/02/09 23:10:24;;;;;;;0.17;0.17;;;;;;;11.71;68.64;102245.69;5069692;28;20096;-82
2022/02/09 23:12:44;;;;;;;4.30;1.17;;;;;;;11.75;68.51;102236.81;5069830;28;20033;-82
2022/02/09 23:18:35;;;;;;;0.10;0.10;;;;;;;11.82;68.66;102241.22;5073737;28;20503;-83
2022/02/09 23:27:09;;;;;;;0.10;0.10;;;;;;;11.72;68.24;102242.16;5088615;27;20417;-81
